createdAt,value
2018-09-24T00:02:05.793Z,7.80
2018-09-24T00:04:33.524Z,7.80
2018-09-24T00:07:01.226Z,7.80
2018-09-24T00:09:28.941Z,7.70
2018-09-24T00:11:56.625Z,7.70
2018-09-24T00:14:24.297Z,7.70
2018-09-24T00:16:51.970Z,7.70
2018-09-24T00:19:19.662Z,7.70
2018-09-24T00:21:47.326Z,7.70
2018-09-24T00:24:15.001Z,7.70
2018-09-24T00:26:42.681Z,7.60
2018-09-24T00:29:10.371Z,7.60
2018-09-24T00:31:38.043Z,7.60
2018-09-24T00:34:05.895Z,7.60
2018-09-24T00:36:33.564Z,7.60
2018-09-24T00:39:01.256Z,7.50
2018-09-24T00:41:28.931Z,7.50
2018-09-24T00:43:56.634Z,7.50
2018-09-24T00:46:24.301Z,7.50
2018-09-24T00:48:52.042Z,7.50
2018-09-24T00:51:19.717Z,7.50
2018-09-24T00:53:47.416Z,7.50
2018-09-24T00:56:15.076Z,7.50
2018-09-24T00:58:42.766Z,7.50
2018-09-24T01:01:10.440Z,7.50
2018-09-24T01:03:38.816Z,7.40
2018-09-24T01:06:06.525Z,7.40
2018-09-24T01:08:34.209Z,7.40
2018-09-24T01:11:01.871Z,7.40
2018-09-24T01:13:29.557Z,7.50
2018-09-24T01:15:57.221Z,7.40
2018-09-24T01:18:24.917Z,7.40
2018-09-24T01:20:52.568Z,7.40
2018-09-24T01:23:20.228Z,7.40
2018-09-24T01:25:47.906Z,7.40
2018-09-24T01:28:15.554Z,7.40
2018-09-24T01:30:43.813Z,7.40
2018-09-24T01:33:11.480Z,7.30
2018-09-24T01:35:39.153Z,7.30
2018-09-24T01:38:06.801Z,7.30
2018-09-24T01:40:34.490Z,7.30
2018-09-24T01:43:02.152Z,7.20
2018-09-24T01:45:29.854Z,7.30
2018-09-24T01:47:57.525Z,7.30
2018-09-24T01:50:25.185Z,7.20
2018-09-24T01:52:52.855Z,7.20
2018-09-24T01:55:20.577Z,7.20
2018-09-24T01:57:48.248Z,7.20
2018-09-24T02:00:15.927Z,7.20
2018-09-24T02:02:43.594Z,7.20
2018-09-24T02:05:15.007Z,7.10
2018-09-24T02:07:42.688Z,7.10
2018-09-24T02:10:10.373Z,7.10
2018-09-24T02:12:38.033Z,7.20
2018-09-24T02:15:05.749Z,7.00
2018-09-24T02:17:33.415Z,7.00
2018-09-24T02:20:01.110Z,7.00
2018-09-24T02:22:29.894Z,6.90
2018-09-24T02:24:58.385Z,7.00
2018-09-24T02:27:26.236Z,7.00
2018-09-24T02:29:53.927Z,7.00
2018-09-24T02:32:21.761Z,6.90
2018-09-24T02:34:50.918Z,6.90
2018-09-24T02:37:18.892Z,6.90
2018-09-24T02:39:46.856Z,6.90
2018-09-24T02:42:14.547Z,6.90
2018-09-24T02:44:42.216Z,6.90
2018-09-24T02:47:09.914Z,6.90
2018-09-24T02:49:37.582Z,6.80
2018-09-24T02:52:05.529Z,6.90
2018-09-24T02:54:34.816Z,6.90
2018-09-24T02:57:02.506Z,6.80
2018-09-24T02:59:30.179Z,6.80
2018-09-24T03:01:57.880Z,6.80
2018-09-24T03:04:25.769Z,6.80
2018-09-24T03:06:53.441Z,6.80
2018-09-24T03:09:21.134Z,6.80
2018-09-24T03:11:48.842Z,6.80
2018-09-24T03:14:22.058Z,6.80
2018-09-24T03:16:49.741Z,6.80
2018-09-24T03:19:17.414Z,6.70
2018-09-24T03:21:45.094Z,6.70
2018-09-24T03:24:12.776Z,6.70
2018-09-24T03:26:40.502Z,6.70
2018-09-24T03:29:08.206Z,6.70
2018-09-24T03:31:36.781Z,6.70
2018-09-24T03:34:04.597Z,6.60
2018-09-24T03:36:32.279Z,6.60
2018-09-24T03:38:59.994Z,6.60
2018-09-24T03:41:27.668Z,6.60
2018-09-24T03:43:55.328Z,6.60
2018-09-24T03:46:23.002Z,6.60
2018-09-24T03:48:50.672Z,6.50
2018-09-24T03:51:18.346Z,6.50
2018-09-24T03:53:46.027Z,6.60
2018-09-24T03:56:13.722Z,6.60
2018-09-24T03:58:41.426Z,6.60
2018-09-24T04:01:09.095Z,6.50
2018-09-24T04:03:36.755Z,6.60
2018-09-24T04:06:09.976Z,6.60
2018-09-24T04:08:43.125Z,6.60
2018-09-24T04:11:16.344Z,6.60
2018-09-24T04:13:49.521Z,6.50
2018-09-24T04:16:22.680Z,6.50
2018-09-24T04:18:55.764Z,6.50
2018-09-24T04:21:28.772Z,6.50
2018-09-24T04:24:01.980Z,6.50
2018-09-24T04:26:35.160Z,6.50
2018-09-24T04:29:08.265Z,6.40
2018-09-24T04:31:41.418Z,6.40
2018-09-24T04:34:14.465Z,6.40
2018-09-24T04:36:47.608Z,6.40
2018-09-24T04:39:20.843Z,6.40
2018-09-24T04:41:53.867Z,6.40
2018-09-24T04:44:27.014Z,6.50
2018-09-24T04:47:00.145Z,6.40
2018-09-24T04:49:33.358Z,6.50
2018-09-24T04:52:06.414Z,6.40
2018-09-24T04:54:39.474Z,6.30
2018-09-24T04:57:12.712Z,6.40
2018-09-24T04:59:45.885Z,6.40
2018-09-24T05:02:19.059Z,6.40
2018-09-24T05:04:52.347Z,6.40
2018-09-24T05:07:25.489Z,6.40
2018-09-24T05:09:58.586Z,6.40
2018-09-24T05:12:31.782Z,6.40
2018-09-24T05:15:04.945Z,6.40
2018-09-24T05:17:38.098Z,6.30
2018-09-24T05:20:12.078Z,6.30
2018-09-24T05:22:45.178Z,6.30
2018-09-24T05:25:18.482Z,6.30
2018-09-24T05:27:51.722Z,6.30
2018-09-24T05:30:24.922Z,6.40
2018-09-24T05:32:58.083Z,6.40
2018-09-24T05:35:31.109Z,6.40
2018-09-24T05:38:04.185Z,6.40
2018-09-24T05:40:37.430Z,6.40
2018-09-24T05:43:10.574Z,6.40
2018-09-24T05:45:43.779Z,6.50
2018-09-24T05:48:16.962Z,6.50
2018-09-24T05:50:50.165Z,6.50
2018-09-24T05:53:23.817Z,6.50
2018-09-24T05:55:56.959Z,6.50
2018-09-24T05:58:30.131Z,6.60
2018-09-24T06:01:03.342Z,6.60
2018-09-24T06:03:36.449Z,6.60
2018-09-24T06:06:09.529Z,6.60
2018-09-24T06:08:42.682Z,6.70
2018-09-24T06:11:15.910Z,6.80
2018-09-24T06:13:49.062Z,6.80
2018-09-24T06:16:22.233Z,6.80
2018-09-24T06:18:55.517Z,6.90
2018-09-24T06:21:28.674Z,6.90
2018-09-24T06:24:01.796Z,7.00
2018-09-24T06:26:35.058Z,7.00
2018-09-24T06:29:08.112Z,7.10
2018-09-24T06:31:41.344Z,7.10
2018-09-24T06:34:14.517Z,7.30
2018-09-24T06:36:47.700Z,7.30
2018-09-24T06:39:20.763Z,7.40
2018-09-24T06:41:53.996Z,7.40
2018-09-24T06:44:27.086Z,7.50
2018-09-24T06:47:00.286Z,7.60
2018-09-24T06:49:33.569Z,7.70
2018-09-24T06:52:06.733Z,7.80
2018-09-24T06:54:40.326Z,8.00
2018-09-24T06:57:13.517Z,8.20
2018-09-24T06:59:46.696Z,8.40
2018-09-24T07:02:19.918Z,8.70
2018-09-24T07:04:53.069Z,8.80
2018-09-24T07:07:26.217Z,8.90
2018-09-24T07:09:59.300Z,9.10
2018-09-24T07:12:32.344Z,9.40
2018-09-24T07:15:05.541Z,9.70
2018-09-24T07:17:38.733Z,9.80
2018-09-24T07:20:11.826Z,9.90
2018-09-24T07:22:45.034Z,9.90
2018-09-24T07:25:18.189Z,9.80
2018-09-24T07:27:51.498Z,9.70
2018-09-24T07:30:24.553Z,9.60
2018-09-24T07:32:57.795Z,9.40
2018-09-24T07:35:30.941Z,9.40
2018-09-24T07:38:04.153Z,9.60
2018-09-24T07:40:37.240Z,9.90
2018-09-24T07:43:10.414Z,10.10
2018-09-24T07:45:43.527Z,10.50
2018-09-24T07:48:16.786Z,10.80
2018-09-24T07:50:49.862Z,11.30
2018-09-24T07:53:23.061Z,11.60
2018-09-24T07:55:56.213Z,12.10
2018-09-24T07:58:30.261Z,12.10
2018-09-24T08:01:03.397Z,12.00
2018-09-24T08:03:36.489Z,12.20
2018-09-24T08:06:09.654Z,12.20
2018-09-24T08:08:42.862Z,12.70
2018-09-24T08:11:15.948Z,13.00
2018-09-24T08:13:49.175Z,13.00
2018-09-24T08:16:22.342Z,12.80
2018-09-24T08:18:55.629Z,12.60
2018-09-24T08:21:28.770Z,12.30
2018-09-24T08:24:01.973Z,13.00
2018-09-24T08:26:35.186Z,13.00
2018-09-24T08:29:08.282Z,13.00
2018-09-24T08:31:41.437Z,12.80
2018-09-24T08:34:14.646Z,13.00
2018-09-24T08:36:47.806Z,13.40
2018-09-24T08:39:20.853Z,13.70
2018-09-24T08:41:53.905Z,13.20
2018-09-24T08:44:27.097Z,13.10
2018-09-24T08:47:00.246Z,12.90
2018-09-24T08:49:33.481Z,13.20
2018-09-24T08:52:06.530Z,13.40
2018-09-24T08:54:39.722Z,13.00
2018-09-24T08:57:12.793Z,13.30
2018-09-24T08:59:45.909Z,13.70
2018-09-24T09:02:19.108Z,13.70
2018-09-24T09:04:52.321Z,13.50
2018-09-24T09:07:25.493Z,13.50
2018-09-24T09:09:58.683Z,13.60
2018-09-24T09:12:31.794Z,13.50
2018-09-24T09:15:04.966Z,13.50
2018-09-24T09:17:38.157Z,13.20
2018-09-24T09:20:11.344Z,12.60
2018-09-24T09:22:44.400Z,11.80
2018-09-24T09:25:17.417Z,11.70
2018-09-24T09:27:50.580Z,11.60
2018-09-24T09:30:23.725Z,11.10
2018-09-24T09:32:56.782Z,11.10
2018-09-24T09:35:29.961Z,11.10
2018-09-24T09:38:03.142Z,11.30
2018-09-24T09:40:36.380Z,11.70
2018-09-24T09:43:09.545Z,11.80
2018-09-24T09:45:42.558Z,11.90
2018-09-24T09:48:15.726Z,11.90
2018-09-24T09:50:48.930Z,12.00
2018-09-24T09:53:22.071Z,12.00
2018-09-24T09:55:55.286Z,12.10
2018-09-24T09:58:28.462Z,12.00
2018-09-24T10:01:01.614Z,11.90
2018-09-24T10:03:34.678Z,11.90
2018-09-24T10:06:08.357Z,12.10
2018-09-24T10:08:41.535Z,12.40
2018-09-24T10:11:14.686Z,12.80
2018-09-24T10:13:47.904Z,13.30
2018-09-24T10:16:21.125Z,13.40
2018-09-24T10:18:54.272Z,13.40
2018-09-24T10:21:27.307Z,13.40
2018-09-24T10:24:00.376Z,13.60
2018-09-24T10:26:33.477Z,13.90
2018-09-24T10:29:06.616Z,14.00
2018-09-24T10:31:39.764Z,14.30
2018-09-24T10:34:13.032Z,14.60
2018-09-24T10:36:46.247Z,14.70
2018-09-24T10:39:19.411Z,14.90
2018-09-24T10:41:52.613Z,14.70
2018-09-24T10:44:25.739Z,14.90
2018-09-24T10:46:58.878Z,15.00
2018-09-24T10:49:32.052Z,15.10
2018-09-24T10:52:05.265Z,15.00
2018-09-24T10:54:38.461Z,14.90
2018-09-24T10:57:11.646Z,15.00
2018-09-24T10:59:44.816Z,14.90
2018-09-24T11:02:18.045Z,15.20
2018-09-24T11:04:51.229Z,15.40
2018-09-24T11:07:24.309Z,16.00
2018-09-24T11:09:57.478Z,16.20
2018-09-24T11:12:30.671Z,15.70
2018-09-24T11:15:03.862Z,15.20
2018-09-24T11:17:37.312Z,14.90
2018-09-24T11:20:10.448Z,14.80
2018-09-24T11:22:43.986Z,14.70
2018-09-24T11:25:17.064Z,15.10
2018-09-24T11:27:50.178Z,15.10
2018-09-24T11:30:23.321Z,14.90
2018-09-24T11:32:56.482Z,14.60
2018-09-24T11:35:29.561Z,14.50
2018-09-24T11:38:02.669Z,13.70
2018-09-24T11:40:35.835Z,12.90
2018-09-24T11:43:09.060Z,12.50
2018-09-24T11:45:42.085Z,11.90
2018-09-24T11:48:15.323Z,11.40
2018-09-24T11:50:48.515Z,10.90
2018-09-24T11:53:21.731Z,10.40
2018-09-24T11:55:54.881Z,10.30
2018-09-24T11:58:28.085Z,10.40
2018-09-24T12:01:01.204Z,10.70
2018-09-24T12:03:34.624Z,10.80
2018-09-24T12:06:07.711Z,10.80
2018-09-24T12:08:41.002Z,10.80
2018-09-24T12:11:14.798Z,11.00
2018-09-24T12:13:47.959Z,10.90
2018-09-24T12:16:21.180Z,10.90
2018-09-24T12:18:54.545Z,10.90
2018-09-24T12:21:27.736Z,10.70
2018-09-24T12:24:01.510Z,10.60
2018-09-24T12:26:35.778Z,11.00
2018-09-24T12:29:09.502Z,12.00
2018-09-24T12:31:43.911Z,12.60
2018-09-24T12:34:17.189Z,12.80
2018-09-24T12:36:50.876Z,13.20
2018-09-24T12:39:24.841Z,13.60
2018-09-24T12:41:57.913Z,14.00
2018-09-24T12:44:31.203Z,14.40
2018-09-24T12:47:04.387Z,14.00
2018-09-24T12:49:37.565Z,13.90
2018-09-24T12:52:11.136Z,13.90
2018-09-24T12:54:44.400Z,13.30
2018-09-24T12:57:17.546Z,13.70
2018-09-24T12:59:50.697Z,13.70
2018-09-24T13:02:23.858Z,14.00
2018-09-24T13:04:57.046Z,13.70
2018-09-24T13:07:30.765Z,13.40
2018-09-24T13:10:03.933Z,13.00
2018-09-24T13:12:37.145Z,13.10
2018-09-24T13:15:10.416Z,13.20
2018-09-24T13:17:43.617Z,13.00
2018-09-24T13:20:16.681Z,12.90
2018-09-24T13:22:49.902Z,12.80
2018-09-24T13:25:23.033Z,13.00
2018-09-24T13:27:56.177Z,13.20
2018-09-24T13:30:29.250Z,13.10
2018-09-24T13:33:02.338Z,13.10
2018-09-24T13:35:35.502Z,13.30
2018-09-24T13:38:08.687Z,13.50
2018-09-24T13:40:41.840Z,14.60
2018-09-24T13:43:15.153Z,15.20
2018-09-24T13:45:48.303Z,15.00
2018-09-24T13:48:21.358Z,14.60
2018-09-24T13:50:54.547Z,14.90
2018-09-24T13:53:27.746Z,16.10
2018-09-24T13:56:00.861Z,16.80
2018-09-24T13:58:33.938Z,17.00
2018-09-24T14:01:07.161Z,17.40
2018-09-24T14:03:40.352Z,17.60
2018-09-24T14:06:13.996Z,17.80
2018-09-24T14:08:47.915Z,18.20
2018-09-24T14:11:21.669Z,18.20
2018-09-24T14:13:55.399Z,18.40
2018-09-24T14:16:29.209Z,17.80
2018-09-24T14:19:02.962Z,16.80
2018-09-24T14:21:37.008Z,16.20
2018-09-24T14:24:11.015Z,15.40
2018-09-24T14:26:44.764Z,14.50
2018-09-24T14:29:18.487Z,13.90
2018-09-24T14:31:52.886Z,13.50
2018-09-24T14:34:26.734Z,11.90
2018-09-24T14:37:00.441Z,11.10
2018-09-24T14:39:35.120Z,10.90
2018-09-24T14:42:08.861Z,11.00
2018-09-24T14:44:42.718Z,11.10
2018-09-24T14:47:16.673Z,11.20
2018-09-24T14:49:50.346Z,11.20
2018-09-24T14:52:24.241Z,11.30
2018-09-24T14:54:58.015Z,11.20
2018-09-24T14:57:32.006Z,11.30
2018-09-24T15:00:05.754Z,11.50
2018-09-24T15:02:39.565Z,11.50
2018-09-24T15:05:13.517Z,11.50
2018-09-24T15:07:47.538Z,11.40
2018-09-24T15:10:21.259Z,11.20
2018-09-24T15:12:55.022Z,11.30
2018-09-24T15:15:28.793Z,11.30
2018-09-24T15:18:02.518Z,11.40
2018-09-24T15:20:36.274Z,11.40
2018-09-24T15:23:10.010Z,11.40
2018-09-24T15:25:43.683Z,11.50
2018-09-24T15:28:17.518Z,11.60
2018-09-24T15:30:51.312Z,11.50
2018-09-24T15:33:25.098Z,11.60
2018-09-24T15:35:58.916Z,11.70
2018-09-24T15:38:32.789Z,11.70
2018-09-24T15:41:07.504Z,11.50
2018-09-24T15:43:41.308Z,11.60
2018-09-24T15:46:15.178Z,11.70
2018-09-24T15:48:48.999Z,11.70
2018-09-24T15:51:22.763Z,11.90
2018-09-24T15:53:56.474Z,11.80
2018-09-24T15:56:30.257Z,11.80
2018-09-24T15:59:04.082Z,11.80
2018-09-24T16:01:38.044Z,11.70
2018-09-24T16:04:11.851Z,11.70
2018-09-24T16:06:45.801Z,11.70
2018-09-24T16:09:19.510Z,11.70
2018-09-24T16:11:53.209Z,11.70
2018-09-24T16:14:27.143Z,11.70
2018-09-24T16:17:00.923Z,11.60
2018-09-24T16:19:34.837Z,11.50
2018-09-24T16:22:08.609Z,11.40
2018-09-24T16:24:42.559Z,11.40
2018-09-24T16:27:16.341Z,11.30
2018-09-24T16:29:50.010Z,11.20
2018-09-24T16:32:23.680Z,11.30
2018-09-24T16:34:58.982Z,11.20
2018-09-24T16:37:32.963Z,11.20
2018-09-24T16:40:06.690Z,11.20
2018-09-24T16:42:40.516Z,11.10
2018-09-24T16:45:14.296Z,11.10
2018-09-24T16:47:48.194Z,11.00
2018-09-24T16:50:22.362Z,10.90
2018-09-24T16:52:56.203Z,10.80
2018-09-24T16:55:30.170Z,10.80
2018-09-24T16:58:03.788Z,10.70
2018-09-24T17:00:37.682Z,10.50
2018-09-24T17:03:12.249Z,10.40
2018-09-24T17:05:46.014Z,10.20
2018-09-24T17:08:19.718Z,10.20
2018-09-24T17:10:53.383Z,10.10
2018-09-24T17:13:27.155Z,10.00
2018-09-24T17:16:00.891Z,9.90
2018-09-24T17:18:34.646Z,9.90
2018-09-24T17:21:08.557Z,9.90
2018-09-24T17:23:42.285Z,10.10
2018-09-24T17:26:16.101Z,10.20
2018-09-24T17:28:49.853Z,10.30
2018-09-24T17:31:23.714Z,10.30
2018-09-24T17:33:57.485Z,10.10
2018-09-24T17:36:31.283Z,10.10
2018-09-24T17:39:05.492Z,10.10
2018-09-24T17:41:39.239Z,10.00
2018-09-24T17:44:13.162Z,9.90
2018-09-24T17:46:47.005Z,10.00
2018-09-24T17:49:20.833Z,10.00
2018-09-24T17:51:54.593Z,10.10
2018-09-24T17:54:28.417Z,10.10
2018-09-24T17:57:02.155Z,10.00
2018-09-24T17:59:35.945Z,9.90
2018-09-24T18:02:09.817Z,10.00
2018-09-24T18:04:43.576Z,9.90
2018-09-24T18:07:17.340Z,9.90
2018-09-24T18:09:51.110Z,9.70
2018-09-24T18:12:24.746Z,9.50
2018-09-24T18:14:58.566Z,9.50
2018-09-24T18:17:32.249Z,9.40
2018-09-24T18:20:06.030Z,9.50
2018-09-24T18:22:40.150Z,9.60
2018-09-24T18:25:13.997Z,9.70
2018-09-24T18:27:47.661Z,9.70
2018-09-24T18:30:21.483Z,9.50
2018-09-24T18:32:55.358Z,9.40
2018-09-24T18:35:28.993Z,9.40
2018-09-24T18:38:02.676Z,9.20
2018-09-24T18:40:36.474Z,9.10
2018-09-24T18:43:10.955Z,9.20
2018-09-24T18:45:44.741Z,9.20
2018-09-24T18:48:18.578Z,9.10
2018-09-24T18:50:52.263Z,9.00
2018-09-24T18:53:26.405Z,9.00
2018-09-24T18:56:00.392Z,9.10
2018-09-24T18:58:36.207Z,9.20
2018-09-24T19:01:10.281Z,9.30
2018-09-24T19:03:45.277Z,9.50
2018-09-24T19:06:21.019Z,9.60
2018-09-24T19:08:55.113Z,9.60
2018-09-24T19:11:29.286Z,9.70
2018-09-24T19:14:03.094Z,9.70
2018-09-24T19:16:36.814Z,9.50
2018-09-24T19:19:10.551Z,9.30
2018-09-24T19:21:44.496Z,9.10
2018-09-24T19:24:18.468Z,9.00
2018-09-24T19:26:52.412Z,9.10
2018-09-24T19:29:26.206Z,9.00
2018-09-24T19:31:59.838Z,8.80
2018-09-24T19:34:34.509Z,8.70
2018-09-24T19:37:08.482Z,8.60
2018-09-24T19:39:42.325Z,8.50
2018-09-24T19:42:16.022Z,8.40
2018-09-24T19:44:49.954Z,8.40
2018-09-24T19:47:23.750Z,8.30
2018-09-24T19:49:57.670Z,8.20
2018-09-24T19:52:31.654Z,8.10
2018-09-24T19:55:05.551Z,8.00
2018-09-24T19:57:39.288Z,8.00
2018-09-24T20:00:13.035Z,8.00
2018-09-24T20:02:46.851Z,8.20
2018-09-24T20:05:20.696Z,8.20
2018-09-24T20:07:54.463Z,8.30
2018-09-24T20:10:28.259Z,8.40
2018-09-24T20:13:02.779Z,8.30
2018-09-24T20:15:36.639Z,8.30
2018-09-24T20:18:10.522Z,8.20
2018-09-24T20:20:44.346Z,8.10
2018-09-24T20:23:18.078Z,8.00
2018-09-24T20:25:52.300Z,7.90
2018-09-24T20:28:26.145Z,8.00
2018-09-24T20:31:00.011Z,7.90
2018-09-24T20:33:33.702Z,7.90
2018-09-24T20:36:07.547Z,7.90
2018-09-24T20:38:41.288Z,7.70
2018-09-24T20:41:15.199Z,7.70
2018-09-24T20:43:49.162Z,7.70
2018-09-24T20:46:23.053Z,7.60
2018-09-24T20:48:56.728Z,7.70
2018-09-24T20:51:30.429Z,7.80
2018-09-24T20:54:04.205Z,7.80
2018-09-24T20:56:38.046Z,7.90
2018-09-24T20:59:11.873Z,7.90
2018-09-24T21:01:45.809Z,7.90
2018-09-24T21:04:19.598Z,8.00
2018-09-24T21:06:53.513Z,8.00
2018-09-24T21:09:27.228Z,7.90
2018-09-24T21:12:00.994Z,7.80
2018-09-24T21:14:34.789Z,7.80
2018-09-24T21:17:08.587Z,7.80
2018-09-24T21:19:42.382Z,7.80
2018-09-24T21:22:16.254Z,7.70
2018-09-24T21:24:49.988Z,7.60
2018-09-24T21:27:23.821Z,7.40
2018-09-24T21:29:57.591Z,7.40
2018-09-24T21:32:31.477Z,7.30
2018-09-24T21:35:05.165Z,7.30
2018-09-24T21:37:38.884Z,7.30
2018-09-24T21:40:12.938Z,7.30
2018-09-24T21:42:46.821Z,7.30
2018-09-24T21:45:21.346Z,7.20
2018-09-24T21:47:55.248Z,7.30
2018-09-24T21:50:29.009Z,7.30
2018-09-24T21:53:09.842Z,7.30
2018-09-24T21:55:43.472Z,7.20
2018-09-24T21:58:17.247Z,7.10
2018-09-24T22:00:51.004Z,7.00
2018-09-24T22:03:24.881Z,7.00
2018-09-24T22:05:58.539Z,6.90
2018-09-24T22:08:32.522Z,6.90
2018-09-24T22:11:06.353Z,6.80
2018-09-24T22:13:39.990Z,6.70
2018-09-24T22:16:13.753Z,6.70
2018-09-24T22:18:47.562Z,6.70
2018-09-24T22:21:21.302Z,6.70
2018-09-24T22:23:55.173Z,6.60
2018-09-24T22:26:29.076Z,6.60
2018-09-24T22:29:02.858Z,6.50
2018-09-24T22:31:36.478Z,6.50
2018-09-24T22:34:10.357Z,6.40
2018-09-24T22:36:44.129Z,6.40
2018-09-24T22:39:17.786Z,6.40
2018-09-24T22:41:51.562Z,6.40
2018-09-24T22:44:25.473Z,6.40
2018-09-24T22:46:59.293Z,6.30
2018-09-24T22:49:33.241Z,6.30
2018-09-24T22:52:06.904Z,6.30
2018-09-24T22:54:40.611Z,6.30
2018-09-24T22:57:14.525Z,6.30
2018-09-24T22:59:48.347Z,6.40
2018-09-24T23:02:22.109Z,6.50
2018-09-24T23:04:55.869Z,6.50
2018-09-24T23:07:29.609Z,6.60
2018-09-24T23:10:03.454Z,6.60
2018-09-24T23:12:37.265Z,6.70
2018-09-24T23:15:11.056Z,6.70
2018-09-24T23:17:44.877Z,6.80
2018-09-24T23:20:18.509Z,6.80
2018-09-24T23:22:52.474Z,6.70
2018-09-24T23:25:26.274Z,6.70
2018-09-24T23:27:59.962Z,6.60
2018-09-24T23:30:33.664Z,6.50
2018-09-24T23:33:07.461Z,6.40
2018-09-24T23:35:41.272Z,6.30
2018-09-24T23:38:14.985Z,6.30
2018-09-24T23:40:48.816Z,6.30
2018-09-24T23:43:22.709Z,6.30
2018-09-24T23:45:56.431Z,6.20
2018-09-24T23:48:30.213Z,6.20
2018-09-24T23:51:03.929Z,6.10
2018-09-24T23:53:37.594Z,6.00
2018-09-24T23:56:11.458Z,6.00
2018-09-24T23:58:45.274Z,5.90
